Terminal Aerodrome Forecast
Issued by NWS Shreveport, LA

Home | Current Version | Previous Version | Text Only | Print | Product List | Glossary On
Versions: 1 2 3 4 5 6 7 8 9 10 11 12 13 14 15 16 17 18 19 20 21 22
000
FTUS44 KSHV 050500
TAFGGG
TAF
KGGG 050524Z 0506/0606 36014G22KT P6SM -RAPL OVC008
      TEMPO 0508/0511 3SM PL SCT010 OVC020
     FM051100 01015KT 5SM -FZRA BR OVC015
     FM051400 04012G20KT P6SM BKN025
     FM051900 03010KT P6SM SKC
     FM060100 VRB04KT P6SM SKC=

USA.gov is the U.S. government's official web portal to all federal, state and local government web resources and services.